sensor_id;sensor_type;location;lat;lon;timestamp;temperature;humidity
67942;SHT31;54731;42.600;23.476;2023-05-21T00:00:43;13.29;75.59
67942;SHT31;54731;42.600;23.476;2023-05-21T00:03:09;13.32;75.06
67942;SHT31;54731;42.600;23.476;2023-05-21T00:05:34;13.28;74.81
67942;SHT31;54731;42.600;23.476;2023-05-21T00:07:59;13.30;75.05
67942;SHT31;54731;42.600;23.476;2023-05-21T00:10:24;13.30;75.34
67942;SHT31;54731;42.600;23.476;2023-05-21T00:12:50;13.20;75.39
67942;SHT31;54731;42.600;23.476;2023-05-21T00:15:15;13.23;74.70
67942;SHT31;54731;42.600;23.476;2023-05-21T00:17:40;13.23;74.68
67942;SHT31;54731;42.600;23.476;2023-05-21T00:20:06;13.20;75.06
67942;SHT31;54731;42.600;23.476;2023-05-21T00:22:32;13.16;74.95
67942;SHT31;54731;42.600;23.476;2023-05-21T00:24:57;13.16;75.15
67942;SHT31;54731;42.600;23.476;2023-05-21T00:27:22;13.18;75.09
67942;SHT31;54731;42.600;23.476;2023-05-21T00:29:47;13.15;75.40
67942;SHT31;54731;42.600;23.476;2023-05-21T00:32:13;13.11;75.48
67942;SHT31;54731;42.600;23.476;2023-05-21T00:34:38;13.12;75.49
67942;SHT31;54731;42.600;23.476;2023-05-21T00:37:03;13.08;75.76
67942;SHT31;54731;42.600;23.476;2023-05-21T00:39:29;13.05;75.56
67942;SHT31;54731;42.600;23.476;2023-05-21T00:41:54;13.12;75.52
67942;SHT31;54731;42.600;23.476;2023-05-21T00:44:19;13.14;75.16
67942;SHT31;54731;42.600;23.476;2023-05-21T00:46:45;13.12;74.96
67942;SHT31;54731;42.600;23.476;2023-05-21T00:49:10;13.05;75.21
67942;SHT31;54731;42.600;23.476;2023-05-21T00:51:36;13.02;74.98
67942;SHT31;54731;42.600;23.476;2023-05-21T00:54:01;13.02;75.00
67942;SHT31;54731;42.600;23.476;2023-05-21T00:56:27;12.96;75.31
67942;SHT31;54731;42.600;23.476;2023-05-21T00:58:54;13.01;75.11
67942;SHT31;54731;42.600;23.476;2023-05-21T01:01:19;13.04;75.13
67942;SHT31;54731;42.600;23.476;2023-05-21T01:03:45;13.06;75.09
67942;SHT31;54731;42.600;23.476;2023-05-21T01:06:10;13.04;75.82
67942;SHT31;54731;42.600;23.476;2023-05-21T01:08:37;13.04;75.66
67942;SHT31;54731;42.600;23.476;2023-05-21T01:11:03;12.99;75.82
67942;SHT31;54731;42.600;23.476;2023-05-21T01:13:30;13.01;75.54
67942;SHT31;54731;42.600;23.476;2023-05-21T01:15:57;13.02;75.68
67942;SHT31;54731;42.600;23.476;2023-05-21T01:18:22;13.04;75.45
67942;SHT31;54731;42.600;23.476;2023-05-21T01:20:47;13.06;75.70
67942;SHT31;54731;42.600;23.476;2023-05-21T01:23:15;12.98;76.03
67942;SHT31;54731;42.600;23.476;2023-05-21T01:25:41;13.02;76.21
67942;SHT31;54731;42.600;23.476;2023-05-21T01:28:06;13.02;76.43
67942;SHT31;54731;42.600;23.476;2023-05-21T01:30:32;13.04;76.74
67942;SHT31;54731;42.600;23.476;2023-05-21T01:33:08;13.08;76.17
67942;SHT31;54731;42.600;23.476;2023-05-21T01:35:42;13.11;76.09
67942;SHT31;54731;42.600;23.476;2023-05-21T01:40:38;13.01;76.64
67942;SHT31;54731;42.600;23.476;2023-05-21T01:43:05;12.92;77.00
67942;SHT31;54731;42.600;23.476;2023-05-21T01:45:32;12.96;77.05
67942;SHT31;54731;42.600;23.476;2023-05-21T01:47:58;12.98;77.06
67942;SHT31;54731;42.600;23.476;2023-05-21T01:50:24;12.98;77.22
67942;SHT31;54731;42.600;23.476;2023-05-21T01:52:52;12.98;77.27
67942;SHT31;54731;42.600;23.476;2023-05-21T01:55:18;12.99;77.27
67942;SHT31;54731;42.600;23.476;2023-05-21T01:57:44;12.94;76.87
67942;SHT31;54731;42.600;23.476;2023-05-21T02:00:10;12.92;76.86
67942;SHT31;54731;42.600;23.476;2023-05-21T02:02:36;12.91;76.08
67942;SHT31;54731;42.600;23.476;2023-05-21T02:05:01;12.92;75.30
67942;SHT31;54731;42.600;23.476;2023-05-21T02:07:26;12.91;75.73
67942;SHT31;54731;42.600;23.476;2023-05-21T02:09:52;12.88;76.27
67942;SHT31;54731;42.600;23.476;2023-05-21T02:12:17;12.81;76.49
67942;SHT31;54731;42.600;23.476;2023-05-21T02:14:42;12.71;76.55
67942;SHT31;54731;42.600;23.476;2023-05-21T02:17:07;12.68;76.39
67942;SHT31;54731;42.600;23.476;2023-05-21T02:19:33;12.80;75.70
67942;SHT31;54731;42.600;23.476;2023-05-21T02:21:58;12.81;75.42
67942;SHT31;54731;42.600;23.476;2023-05-21T02:24:23;12.69;76.11
67942;SHT31;54731;42.600;23.476;2023-05-21T02:26:49;12.69;76.28
67942;SHT31;54731;42.600;23.476;2023-05-21T02:29:14;12.67;76.10
67942;SHT31;54731;42.600;23.476;2023-05-21T02:31:40;12.73;75.97
67942;SHT31;54731;42.600;23.476;2023-05-21T02:34:05;12.68;76.28
67942;SHT31;54731;42.600;23.476;2023-05-21T02:36:30;12.67;76.41
67942;SHT31;54731;42.600;23.476;2023-05-21T02:38:55;12.67;76.39
67942;SHT31;54731;42.600;23.476;2023-05-21T02:41:21;12.67;76.46
67942;SHT31;54731;42.600;23.476;2023-05-21T02:43:46;12.81;74.90
67942;SHT31;54731;42.600;23.476;2023-05-21T02:46:11;12.78;75.27
67942;SHT31;54731;42.600;23.476;2023-05-21T02:48:37;12.78;75.76
67942;SHT31;54731;42.600;23.476;2023-05-21T02:51:02;12.81;76.02
67942;SHT31;54731;42.600;23.476;2023-05-21T02:53:27;12.81;75.86
67942;SHT31;54731;42.600;23.476;2023-05-21T02:55:53;12.80;76.17
67942;SHT31;54731;42.600;23.476;2023-05-21T02:58:18;12.80;76.43
67942;SHT31;54731;42.600;23.476;2023-05-21T03:00:43;12.83;76.01
67942;SHT31;54731;42.600;23.476;2023-05-21T03:03:09;12.83;76.13
67942;SHT31;54731;42.600;23.476;2023-05-21T03:05:34;12.80;76.22
67942;SHT31;54731;42.600;23.476;2023-05-21T03:07:59;12.81;76.71
67942;SHT31;54731;42.600;23.476;2023-05-21T03:10:25;12.80;76.39
67942;SHT31;54731;42.600;23.476;2023-05-21T03:12:50;12.83;76.07
67942;SHT31;54731;42.600;23.476;2023-05-21T03:15:16;12.88;75.46
67942;SHT31;54731;42.600;23.476;2023-05-21T03:17:42;12.88;75.60
67942;SHT31;54731;42.600;23.476;2023-05-21T03:20:07;12.85;75.95
67942;SHT31;54731;42.600;23.476;2023-05-21T03:22:33;12.88;75.81
67942;SHT31;54731;42.600;23.476;2023-05-21T03:24:59;12.89;75.88
67942;SHT31;54731;42.600;23.476;2023-05-21T03:27:24;12.92;75.74
67942;SHT31;54731;42.600;23.476;2023-05-21T03:29:49;12.91;76.34
67942;SHT31;54731;42.600;23.476;2023-05-21T03:32:15;12.95;75.63
67942;SHT31;54731;42.600;23.476;2023-05-21T03:34:40;12.94;75.95
67942;SHT31;54731;42.600;23.476;2023-05-21T03:37:05;12.95;75.75
67942;SHT31;54731;42.600;23.476;2023-05-21T03:39:31;12.98;75.46
67942;SHT31;54731;42.600;23.476;2023-05-21T03:41:56;12.99;75.85
67942;SHT31;54731;42.600;23.476;2023-05-21T03:44:21;13.12;75.04
67942;SHT31;54731;42.600;23.476;2023-05-21T03:46:46;13.06;75.59
67942;SHT31;54731;42.600;23.476;2023-05-21T03:49:13;13.08;76.03
67942;SHT31;54731;42.600;23.476;2023-05-21T03:51:38;13.06;75.62
67942;SHT31;54731;42.600;23.476;2023-05-21T03:54:03;13.14;74.74
67942;SHT31;54731;42.600;23.476;2023-05-21T03:56:28;13.14;75.51
67942;SHT31;54731;42.600;23.476;2023-05-21T03:58:54;13.19;75.57
67942;SHT31;54731;42.600;23.476;2023-05-21T04:01:19;13.22;74.77
67942;SHT31;54731;42.600;23.476;2023-05-21T04:03:44;13.25;75.09
67942;SHT31;54731;42.600;23.476;2023-05-21T04:06:10;13.22;75.12
67942;SHT31;54731;42.600;23.476;2023-05-21T04:08:35;13.23;74.61
67942;SHT31;54731;42.600;23.476;2023-05-21T04:11:01;13.26;74.60
67942;SHT31;54731;42.600;23.476;2023-05-21T04:13:26;13.30;74.55
67942;SHT31;54731;42.600;23.476;2023-05-21T04:15:51;13.38;75.17
67942;SHT31;54731;42.600;23.476;2023-05-21T04:18:16;13.36;75.04
67942;SHT31;54731;42.600;23.476;2023-05-21T04:20:42;13.34;75.12
67942;SHT31;54731;42.600;23.476;2023-05-21T04:23:08;13.36;75.32
67942;SHT31;54731;42.600;23.476;2023-05-21T04:25:33;13.39;75.53
67942;SHT31;54731;42.600;23.476;2023-05-21T04:27:59;13.39;75.16
67942;SHT31;54731;42.600;23.476;2023-05-21T04:30:24;13.48;74.29
67942;SHT31;54731;42.600;23.476;2023-05-21T04:32:49;13.50;73.68
67942;SHT31;54731;42.600;23.476;2023-05-21T04:35:15;13.56;73.68
67942;SHT31;54731;42.600;23.476;2023-05-21T04:37:40;13.65;73.33
67942;SHT31;54731;42.600;23.476;2023-05-21T04:40:06;13.63;73.81
67942;SHT31;54731;42.600;23.476;2023-05-21T04:42:31;13.69;73.89
67942;SHT31;54731;42.600;23.476;2023-05-21T04:44:56;13.77;73.35
67942;SHT31;54731;42.600;23.476;2023-05-21T04:47:22;13.81;73.63
67942;SHT31;54731;42.600;23.476;2023-05-21T04:49:47;13.87;72.75
67942;SHT31;54731;42.600;23.476;2023-05-21T04:52:12;13.87;72.80
67942;SHT31;54731;42.600;23.476;2023-05-21T04:54:38;13.91;73.14
67942;SHT31;54731;42.600;23.476;2023-05-21T04:57:04;13.99;73.24
67942;SHT31;54731;42.600;23.476;2023-05-21T04:59:30;14.07;73.52
67942;SHT31;54731;42.600;23.476;2023-05-21T05:01:55;14.13;72.02
67942;SHT31;54731;42.600;23.476;2023-05-21T05:04:20;14.17;71.78
67942;SHT31;54731;42.600;23.476;2023-05-21T05:06:46;14.21;71.29
67942;SHT31;54731;42.600;23.476;2023-05-21T05:09:11;14.28;71.19
67942;SHT31;54731;42.600;23.476;2023-05-21T05:11:36;14.41;71.32
67942;SHT31;54731;42.600;23.476;2023-05-21T05:14:01;14.48;70.42
67942;SHT31;54731;42.600;23.476;2023-05-21T05:16:27;14.62;69.88
67942;SHT31;54731;42.600;23.476;2023-05-21T05:18:52;14.67;69.42
67942;SHT31;54731;42.600;23.476;2023-05-21T05:21:18;14.79;69.30
67942;SHT31;54731;42.600;23.476;2023-05-21T05:23:43;14.85;68.30
67942;SHT31;54731;42.600;23.476;2023-05-21T05:26:10;14.98;68.11
67942;SHT31;54731;42.600;23.476;2023-05-21T05:28:35;15.02;68.96
67942;SHT31;54731;42.600;23.476;2023-05-21T05:31:00;15.06;68.36
67942;SHT31;54731;42.600;23.476;2023-05-21T05:33:26;15.10;67.87
67942;SHT31;54731;42.600;23.476;2023-05-21T05:35:51;15.16;68.02
67942;SHT31;54731;42.600;23.476;2023-05-21T05:38:16;15.18;68.16
67942;SHT31;54731;42.600;23.476;2023-05-21T05:40:41;15.20;67.34
67942;SHT31;54731;42.600;23.476;2023-05-21T05:43:07;15.27;67.21
67942;SHT31;54731;42.600;23.476;2023-05-21T05:45:32;15.42;67.38
67942;SHT31;54731;42.600;23.476;2023-05-21T05:47:58;15.43;67.06
67942;SHT31;54731;42.600;23.476;2023-05-21T05:50:23;15.51;67.88
67942;SHT31;54731;42.600;23.476;2023-05-21T05:52:48;15.59;67.95
67942;SHT31;54731;42.600;23.476;2023-05-21T05:55:14;15.69;67.59
67942;SHT31;54731;42.600;23.476;2023-05-21T05:57:39;15.71;66.68
67942;SHT31;54731;42.600;23.476;2023-05-21T06:00:05;15.83;67.42
67942;SHT31;54731;42.600;23.476;2023-05-21T06:02:30;16.02;66.54
67942;SHT31;54731;42.600;23.476;2023-05-21T06:04:55;16.22;65.58
67942;SHT31;54731;42.600;23.476;2023-05-21T06:07:21;16.34;65.01
67942;SHT31;54731;42.600;23.476;2023-05-21T06:09:46;16.41;64.32
67942;SHT31;54731;42.600;23.476;2023-05-21T06:12:11;16.44;64.42
67942;SHT31;54731;42.600;23.476;2023-05-21T06:14:37;16.56;65.01
67942;SHT31;54731;42.600;23.476;2023-05-21T06:17:02;16.66;63.04
67942;SHT31;54731;42.600;23.476;2023-05-21T06:19:27;16.86;63.87
67942;SHT31;54731;42.600;23.476;2023-05-21T06:21:53;16.96;63.87
67942;SHT31;54731;42.600;23.476;2023-05-21T06:24:18;17.02;63.31
67942;SHT31;54731;42.600;23.476;2023-05-21T06:26:43;17.13;63.27
67942;SHT31;54731;42.600;23.476;2023-05-21T06:29:08;17.27;63.15
67942;SHT31;54731;42.600;23.476;2023-05-21T06:31:34;17.22;62.67
67942;SHT31;54731;42.600;23.476;2023-05-21T06:33:59;17.17;62.49
67942;SHT31;54731;42.600;23.476;2023-05-21T06:36:25;17.23;62.40
67942;SHT31;54731;42.600;23.476;2023-05-21T06:38:51;17.23;62.55
67942;SHT31;54731;42.600;23.476;2023-05-21T06:41:16;17.24;61.54
67942;SHT31;54731;42.600;23.476;2023-05-21T06:43:41;17.31;61.70
67942;SHT31;54731;42.600;23.476;2023-05-21T06:46:07;17.33;61.07
67942;SHT31;54731;42.600;23.476;2023-05-21T06:48:32;17.33;61.13
67942;SHT31;54731;42.600;23.476;2023-05-21T06:50:57;17.44;61.39
67942;SHT31;54731;42.600;23.476;2023-05-21T06:53:22;17.57;60.82
67942;SHT31;54731;42.600;23.476;2023-05-21T06:55:48;17.58;59.95
67942;SHT31;54731;42.600;23.476;2023-05-21T06:58:13;17.58;59.98
67942;SHT31;54731;42.600;23.476;2023-05-21T07:00:38;17.67;59.88
67942;SHT31;54731;42.600;23.476;2023-05-21T07:03:04;17.82;60.13
67942;SHT31;54731;42.600;23.476;2023-05-21T07:05:29;17.95;59.21
67942;SHT31;54731;42.600;23.476;2023-05-21T07:07:54;17.97;59.33
67942;SHT31;54731;42.600;23.476;2023-05-21T07:10:20;18.11;60.38
67942;SHT31;54731;42.600;23.476;2023-05-21T07:12:45;18.12;59.37
67942;SHT31;54731;42.600;23.476;2023-05-21T07:15:10;18.16;59.56
67942;SHT31;54731;42.600;23.476;2023-05-21T07:17:36;18.16;59.24
67942;SHT31;54731;42.600;23.476;2023-05-21T07:20:02;18.11;59.25
67942;SHT31;54731;42.600;23.476;2023-05-21T07:22:27;18.18;58.84
67942;SHT31;54731;42.600;23.476;2023-05-21T07:24:52;18.12;59.62
67942;SHT31;54731;42.600;23.476;2023-05-21T07:27:18;18.19;59.23
67942;SHT31;54731;42.600;23.476;2023-05-21T07:29:43;18.32;59.79
67942;SHT31;54731;42.600;23.476;2023-05-21T07:32:08;18.39;57.90
67942;SHT31;54731;42.600;23.476;2023-05-21T07:34:33;18.51;58.60
67942;SHT31;54731;42.600;23.476;2023-05-21T07:36:59;18.55;59.02
67942;SHT31;54731;42.600;23.476;2023-05-21T07:39:24;18.60;59.28
67942;SHT31;54731;42.600;23.476;2023-05-21T07:41:49;18.64;57.90
67942;SHT31;54731;42.600;23.476;2023-05-21T07:44:15;18.74;57.30
67942;SHT31;54731;42.600;23.476;2023-05-21T07:46:40;18.86;56.29
67942;SHT31;54731;42.600;23.476;2023-05-21T07:49:05;18.90;58.18
67942;SHT31;54731;42.600;23.476;2023-05-21T07:51:31;19.04;59.07
67942;SHT31;54731;42.600;23.476;2023-05-21T07:53:57;19.08;57.07
67942;SHT31;54731;42.600;23.476;2023-05-21T07:56:25;19.13;56.79
67942;SHT31;54731;42.600;23.476;2023-05-21T07:58:50;19.23;56.93
67942;SHT31;54731;42.600;23.476;2023-05-21T08:01:16;19.14;56.00
67942;SHT31;54731;42.600;23.476;2023-05-21T08:03:41;19.17;56.88
67942;SHT31;54731;42.600;23.476;2023-05-21T08:06:06;19.28;54.94
67942;SHT31;54731;42.600;23.476;2023-05-21T08:08:32;19.35;54.81
67942;SHT31;54731;42.600;23.476;2023-05-21T08:10:57;19.38;54.70
67942;SHT31;54731;42.600;23.476;2023-05-21T08:13:22;19.44;53.99
67942;SHT31;54731;42.600;23.476;2023-05-21T08:15:48;19.39;52.69
67942;SHT31;54731;42.600;23.476;2023-05-21T08:18:13;19.37;52.92
67942;SHT31;54731;42.600;23.476;2023-05-21T08:20:39;19.28;54.94
67942;SHT31;54731;42.600;23.476;2023-05-21T08:23:04;19.18;54.86
67942;SHT31;54731;42.600;23.476;2023-05-21T08:25:31;19.20;54.56
67942;SHT31;54731;42.600;23.476;2023-05-21T08:27:57;19.31;54.82
67942;SHT31;54731;42.600;23.476;2023-05-21T08:30:22;19.34;54.25
67942;SHT31;54731;42.600;23.476;2023-05-21T08:32:48;19.32;55.07
67942;SHT31;54731;42.600;23.476;2023-05-21T08:35:13;19.31;54.75
67942;SHT31;54731;42.600;23.476;2023-05-21T08:37:38;19.30;53.89
67942;SHT31;54731;42.600;23.476;2023-05-21T08:40:04;19.39;54.00
67942;SHT31;54731;42.600;23.476;2023-05-21T08:42:42;19.59;54.34
67942;SHT31;54731;42.600;23.476;2023-05-21T08:45:10;19.85;53.12
67942;SHT31;54731;42.600;23.476;2023-05-21T08:47:36;19.99;52.23
67942;SHT31;54731;42.600;23.476;2023-05-21T08:50:12;20.15;49.88
67942;SHT31;54731;42.600;23.476;2023-05-21T08:52:37;20.18;47.95
67942;SHT31;54731;42.600;23.476;2023-05-21T08:55:03;20.05;49.83
67942;SHT31;54731;42.600;23.476;2023-05-21T08:57:30;19.96;49.91
67942;SHT31;54731;42.600;23.476;2023-05-21T08:59:55;19.86;49.27
67942;SHT31;54731;42.600;23.476;2023-05-21T09:02:21;19.82;49.25
67942;SHT31;54731;42.600;23.476;2023-05-21T09:04:47;19.74;48.15
67942;SHT31;54731;42.600;23.476;2023-05-21T09:07:14;19.77;48.26
67942;SHT31;54731;42.600;23.476;2023-05-21T09:10:11;19.69;47.20
67942;SHT31;54731;42.600;23.476;2023-05-21T09:12:37;19.62;46.75
67942;SHT31;54731;42.600;23.476;2023-05-21T09:15:02;19.69;46.47
67942;SHT31;54731;42.600;23.476;2023-05-21T09:17:28;19.89;47.02
67942;SHT31;54731;42.600;23.476;2023-05-21T09:20:12;19.92;46.72
67942;SHT31;54731;42.600;23.476;2023-05-21T09:25:11;20.02;46.07
67942;SHT31;54731;42.600;23.476;2023-05-21T09:27:37;20.10;43.62
67942;SHT31;54731;42.600;23.476;2023-05-21T09:30:03;20.05;44.31
67942;SHT31;54731;42.600;23.476;2023-05-21T09:32:29;20.04;42.64
67942;SHT31;54731;42.600;23.476;2023-05-21T09:34:54;19.91;42.88
67942;SHT31;54731;42.600;23.476;2023-05-21T09:37:20;20.06;42.94
67942;SHT31;54731;42.600;23.476;2023-05-21T09:39:48;20.06;42.84
67942;SHT31;54731;42.600;23.476;2023-05-21T09:42:13;20.08;42.37
67942;SHT31;54731;42.600;23.476;2023-05-21T09:44:42;19.99;41.92
67942;SHT31;54731;42.600;23.476;2023-05-21T09:47:07;20.15;42.16
67942;SHT31;54731;42.600;23.476;2023-05-21T09:49:33;20.25;41.98
67942;SHT31;54731;42.600;23.476;2023-05-21T09:52:00;20.53;41.67
67942;SHT31;54731;42.600;23.476;2023-05-21T09:54:30;20.74;41.65
67942;SHT31;54731;42.600;23.476;2023-05-21T09:56:56;20.76;41.95
67942;SHT31;54731;42.600;23.476;2023-05-21T09:59:21;20.98;41.30
67942;SHT31;54731;42.600;23.476;2023-05-21T10:01:50;21.05;40.87
67942;SHT31;54731;42.600;23.476;2023-05-21T10:04:16;21.01;40.51
67942;SHT31;54731;42.600;23.476;2023-05-21T10:06:42;21.14;41.51
67942;SHT31;54731;42.600;23.476;2023-05-21T10:09:10;21.25;40.34
67942;SHT31;54731;42.600;23.476;2023-05-21T10:11:38;21.39;41.42
67942;SHT31;54731;42.600;23.476;2023-05-21T10:14:10;21.49;40.30
67942;SHT31;54731;42.600;23.476;2023-05-21T10:16:39;21.69;40.74
67942;SHT31;54731;42.600;23.476;2023-05-21T10:19:05;21.86;40.76
67942;SHT31;54731;42.600;23.476;2023-05-21T10:21:31;21.81;40.66
67942;SHT31;54731;42.600;23.476;2023-05-21T10:23:57;21.81;41.62
67942;SHT31;54731;42.600;23.476;2023-05-21T10:26:22;21.71;41.43
67942;SHT31;54731;42.600;23.476;2023-05-21T10:28:49;21.72;42.80
67942;SHT31;54731;42.600;23.476;2023-05-21T10:31:15;21.62;42.26
67942;SHT31;54731;42.600;23.476;2023-05-21T10:33:40;21.55;42.13
67942;SHT31;54731;42.600;23.476;2023-05-21T10:36:07;21.62;42.24
67942;SHT31;54731;42.600;23.476;2023-05-21T10:38:33;21.51;42.88
67942;SHT31;54731;42.600;23.476;2023-05-21T10:41:00;21.55;43.22
67942;SHT31;54731;42.600;23.476;2023-05-21T10:53:50;21.38;44.11
67942;SHT31;54731;42.600;23.476;2023-05-21T11:01:50;21.65;43.76
67942;SHT31;54731;42.600;23.476;2023-05-21T11:04:15;21.96;43.04
67942;SHT31;54731;42.600;23.476;2023-05-21T11:06:45;22.16;42.88
67942;SHT31;54731;42.600;23.476;2023-05-21T11:09:14;22.14;41.50
67942;SHT31;54731;42.600;23.476;2023-05-21T11:17:15;22.39;42.41
67942;SHT31;54731;42.600;23.476;2023-05-21T11:19:44;22.50;41.22
67942;SHT31;54731;42.600;23.476;2023-05-21T11:22:23;22.43;41.16
67942;SHT31;54731;42.600;23.476;2023-05-21T11:24:50;22.39;42.18
67942;SHT31;54731;42.600;23.476;2023-05-21T11:29:54;22.49;40.17
67942;SHT31;54731;42.600;23.476;2023-05-21T11:32:20;22.30;40.46
67942;SHT31;54731;42.600;23.476;2023-05-21T11:34:46;22.24;41.06
67942;SHT31;54731;42.600;23.476;2023-05-21T11:39:40;22.05;37.87
67942;SHT31;54731;42.600;23.476;2023-05-21T11:42:05;22.16;40.55
67942;SHT31;54731;42.600;23.476;2023-05-21T11:44:41;22.17;41.04
67942;SHT31;54731;42.600;23.476;2023-05-21T11:47:09;22.14;40.35
67942;SHT31;54731;42.600;23.476;2023-05-21T11:49:35;21.93;41.03
67942;SHT31;54731;42.600;23.476;2023-05-21T11:52:03;21.76;41.17
67942;SHT31;54731;42.600;23.476;2023-05-21T11:54:29;21.59;40.73
67942;SHT31;54731;42.600;23.476;2023-05-21T11:56:55;21.55;42.93
67942;SHT31;54731;42.600;23.476;2023-05-21T11:59:20;21.55;42.50
67942;SHT31;54731;42.600;23.476;2023-05-21T12:01:46;21.57;42.79
67942;SHT31;54731;42.600;23.476;2023-05-21T12:04:11;21.59;42.25
67942;SHT31;54731;42.600;23.476;2023-05-21T12:06:41;21.54;43.07
67942;SHT31;54731;42.600;23.476;2023-05-21T12:09:10;21.51;43.63
67942;SHT31;54731;42.600;23.476;2023-05-21T12:11:39;21.59;43.24
67942;SHT31;54731;42.600;23.476;2023-05-21T12:14:09;21.38;42.52
67942;SHT31;54731;42.600;23.476;2023-05-21T12:16:34;21.31;43.03
67942;SHT31;54731;42.600;23.476;2023-05-21T12:19:01;21.35;43.07
67942;SHT31;54731;42.600;23.476;2023-05-21T12:21:28;21.39;43.46
67942;SHT31;54731;42.600;23.476;2023-05-21T12:23:54;21.30;44.75
67942;SHT31;54731;42.600;23.476;2023-05-21T12:26:19;21.10;44.96
67942;SHT31;54731;42.600;23.476;2023-05-21T12:28:44;21.11;42.82
67942;SHT31;54731;42.600;23.476;2023-05-21T12:31:14;21.11;42.25
67942;SHT31;54731;42.600;23.476;2023-05-21T12:33:39;20.97;43.32
67942;SHT31;54731;42.600;23.476;2023-05-21T12:36:05;20.97;44.02
67942;SHT31;54731;42.600;23.476;2023-05-21T12:38:30;21.05;44.35
67942;SHT31;54731;42.600;23.476;2023-05-21T12:41:02;21.17;45.78
67942;SHT31;54731;42.600;23.476;2023-05-21T12:43:31;21.20;42.91
67942;SHT31;54731;42.600;23.476;2023-05-21T12:45:56;21.27;45.78
67942;SHT31;54731;42.600;23.476;2023-05-21T12:48:21;21.42;45.79
67942;SHT31;54731;42.600;23.476;2023-05-21T12:50:47;21.72;45.42
67942;SHT31;54731;42.600;23.476;2023-05-21T12:53:12;21.89;44.47
67942;SHT31;54731;42.600;23.476;2023-05-21T12:55:37;22.02;44.51
67942;SHT31;54731;42.600;23.476;2023-05-21T12:58:03;22.23;44.41
67942;SHT31;54731;42.600;23.476;2023-05-21T13:00:30;22.57;41.81
67942;SHT31;54731;42.600;23.476;2023-05-21T13:02:56;22.84;41.67
67942;SHT31;54731;42.600;23.476;2023-05-21T13:05:22;23.14;41.39
67942;SHT31;54731;42.600;23.476;2023-05-21T13:07:48;23.19;40.33
67942;SHT31;54731;42.600;23.476;2023-05-21T13:10:14;23.12;38.97
67942;SHT31;54731;42.600;23.476;2023-05-21T13:12:39;23.34;39.91
67942;SHT31;54731;42.600;23.476;2023-05-21T13:15:05;23.46;39.54
67942;SHT31;54731;42.600;23.476;2023-05-21T13:17:31;23.66;39.39
67942;SHT31;54731;42.600;23.476;2023-05-21T13:20:15;23.79;38.52
67942;SHT31;54731;42.600;23.476;2023-05-21T13:25:08;24.03;34.86
67942;SHT31;54731;42.600;23.476;2023-05-21T13:27:36;24.33;37.09
67942;SHT31;54731;42.600;23.476;2023-05-21T13:30:02;24.16;37.38
67942;SHT31;54731;42.600;23.476;2023-05-21T13:32:28;24.16;37.32
67942;SHT31;54731;42.600;23.476;2023-05-21T13:34:53;24.46;37.84
67942;SHT31;54731;42.600;23.476;2023-05-21T13:37:18;24.59;37.21
67942;SHT31;54731;42.600;23.476;2023-05-21T13:39:43;24.72;37.06
67942;SHT31;54731;42.600;23.476;2023-05-21T13:42:09;24.87;35.27
67942;SHT31;54731;42.600;23.476;2023-05-21T13:44:34;25.07;37.34
67942;SHT31;54731;42.600;23.476;2023-05-21T13:46:59;25.14;37.27
67942;SHT31;54731;42.600;23.476;2023-05-21T13:49:25;25.31;36.22
67942;SHT31;54731;42.600;23.476;2023-05-21T13:51:50;25.11;35.14
67942;SHT31;54731;42.600;23.476;2023-05-21T13:54:15;24.99;35.92
67942;SHT31;54731;42.600;23.476;2023-05-21T13:56:40;24.85;36.44
67942;SHT31;54731;42.600;23.476;2023-05-21T13:59:06;24.84;35.96
67942;SHT31;54731;42.600;23.476;2023-05-21T14:01:31;24.60;36.65
67942;SHT31;54731;42.600;23.476;2023-05-21T14:03:56;24.60;35.82
67942;SHT31;54731;42.600;23.476;2023-05-21T14:06:22;24.61;36.31
67942;SHT31;54731;42.600;23.476;2023-05-21T14:08:47;24.78;38.45
67942;SHT31;54731;42.600;23.476;2023-05-21T14:11:12;24.65;36.14
67942;SHT31;54731;42.600;23.476;2023-05-21T14:13:37;24.20;37.86
67942;SHT31;54731;42.600;23.476;2023-05-21T14:16:03;24.33;35.87
67942;SHT31;54731;42.600;23.476;2023-05-21T14:18:28;24.29;37.91
67942;SHT31;54731;42.600;23.476;2023-05-21T14:20:54;24.14;39.09
67942;SHT31;54731;42.600;23.476;2023-05-21T14:23:19;24.02;38.22
67942;SHT31;54731;42.600;23.476;2023-05-21T14:25:44;23.83;38.39
67942;SHT31;54731;42.600;23.476;2023-05-21T14:28:09;23.61;39.04
67942;SHT31;54731;42.600;23.476;2023-05-21T14:30:35;23.55;39.34
67942;SHT31;54731;42.600;23.476;2023-05-21T14:33:00;23.48;39.80
67942;SHT31;54731;42.600;23.476;2023-05-21T14:35:25;23.21;38.98
67942;SHT31;54731;42.600;23.476;2023-05-21T14:37:51;23.10;39.25
67942;SHT31;54731;42.600;23.476;2023-05-21T14:40:17;23.12;42.64
67942;SHT31;54731;42.600;23.476;2023-05-21T14:42:42;23.05;39.51
67942;SHT31;54731;42.600;23.476;2023-05-21T14:45:08;23.00;39.89
67942;SHT31;54731;42.600;23.476;2023-05-21T14:47:33;22.81;40.59
67942;SHT31;54731;42.600;23.476;2023-05-21T14:49:58;22.80;41.14
67942;SHT31;54731;42.600;23.476;2023-05-21T14:52:24;22.88;40.86
67942;SHT31;54731;42.600;23.476;2023-05-21T14:54:49;23.03;42.09
67942;SHT31;54731;42.600;23.476;2023-05-21T14:57:14;23.19;41.66
67942;SHT31;54731;42.600;23.476;2023-05-21T14:59:39;23.10;40.29
67942;SHT31;54731;42.600;23.476;2023-05-21T15:02:05;23.05;41.15
67942;SHT31;54731;42.600;23.476;2023-05-21T15:04:30;22.93;41.00
67942;SHT31;54731;42.600;23.476;2023-05-21T15:06:55;22.93;41.40
67942;SHT31;54731;42.600;23.476;2023-05-21T15:09:21;22.98;41.83
67942;SHT31;54731;42.600;23.476;2023-05-21T15:11:46;23.14;40.93
67942;SHT31;54731;42.600;23.476;2023-05-21T15:14:11;23.05;40.53
67942;SHT31;54731;42.600;23.476;2023-05-21T15:16:37;22.87;40.99
67942;SHT31;54731;42.600;23.476;2023-05-21T15:19:03;22.81;40.45
67942;SHT31;54731;42.600;23.476;2023-05-21T15:21:28;22.78;40.64
67942;SHT31;54731;42.600;23.476;2023-05-21T15:23:53;22.68;40.41
67942;SHT31;54731;42.600;23.476;2023-05-21T15:26:18;22.46;40.88
67942;SHT31;54731;42.600;23.476;2023-05-21T15:28:44;22.12;42.21
67942;SHT31;54731;42.600;23.476;2023-05-21T15:31:10;21.71;42.62
67942;SHT31;54731;42.600;23.476;2023-05-21T15:33:35;21.62;43.13
67942;SHT31;54731;42.600;23.476;2023-05-21T15:36:00;21.37;43.52
67942;SHT31;54731;42.600;23.476;2023-05-21T15:38:26;21.01;43.95
67942;SHT31;54731;42.600;23.476;2023-05-21T15:40:51;20.67;44.87